createdAt,value
2023-04-15T00:00:41.366Z,8.30
2023-04-15T00:03:10.103Z,8.30
2023-04-15T00:05:40.011Z,8.20
2023-04-15T00:08:08.195Z,8.20
2023-04-15T00:10:36.413Z,8.10
2023-04-15T00:13:04.678Z,8.10
2023-04-15T00:15:32.881Z,8.00
2023-04-15T00:18:01.329Z,8.00
2023-04-15T00:20:29.576Z,8.00
2023-04-15T00:23:00.521Z,8.00
2023-04-15T00:25:29.207Z,7.90
2023-04-15T00:27:57.462Z,8.00
2023-04-15T00:30:25.769Z,8.00
2023-04-15T00:32:54.330Z,7.90
2023-04-15T00:35:24.099Z,7.90
2023-04-15T00:37:52.378Z,7.80
2023-04-15T00:40:24.686Z,7.90
2023-04-15T00:42:53.042Z,7.80
2023-04-15T00:45:21.483Z,7.80
2023-04-15T00:47:49.865Z,7.80
2023-04-15T00:50:18.394Z,7.80
2023-04-15T00:52:46.819Z,7.70
2023-04-15T00:55:15.099Z,7.70
2023-04-15T00:57:45.581Z,7.70
2023-04-15T01:00:14.684Z,7.60
2023-04-15T01:02:43.319Z,7.60
2023-04-15T01:05:35.133Z,7.60
2023-04-15T01:08:03.799Z,7.60
2023-04-15T01:10:32.886Z,7.60
2023-04-15T01:13:04.025Z,7.60
2023-04-15T01:15:32.450Z,7.60
2023-04-15T01:18:01.040Z,7.40
2023-04-15T01:20:30.118Z,7.40
2023-04-15T01:22:58.942Z,7.30
2023-04-15T01:25:33.368Z,7.20
2023-04-15T01:28:02.162Z,7.00
2023-04-15T01:30:34.714Z,6.90
2023-04-15T01:33:03.184Z,7.10
2023-04-15T01:35:32.353Z,7.20
2023-04-15T01:38:06.154Z,7.20
2023-04-15T01:40:36.253Z,7.10
2023-04-15T01:43:04.876Z,7.10
2023-04-15T01:45:33.100Z,7.10
2023-04-15T01:48:01.359Z,7.00
2023-04-15T01:50:30.394Z,7.00
2023-04-15T01:52:58.709Z,7.00
2023-04-15T01:55:27.250Z,7.00
2023-04-15T01:57:57.013Z,7.10
2023-04-15T02:00:25.249Z,7.10
2023-04-15T02:02:54.035Z,6.90
2023-04-15T02:05:22.271Z,7.00
2023-04-15T02:07:50.599Z,6.80
2023-04-15T02:10:19.135Z,6.70
2023-04-15T02:12:47.742Z,6.50
2023-04-15T02:15:17.354Z,6.40
2023-04-15T02:17:50.799Z,6.40
2023-04-15T02:20:21.114Z,6.30
2023-04-15T02:22:49.728Z,6.20
2023-04-15T02:25:18.227Z,6.20
2023-04-15T02:27:46.439Z,6.00
2023-04-15T02:30:16.158Z,6.10
2023-04-15T02:32:45.148Z,6.10
2023-04-15T02:35:13.709Z,6.00
2023-04-15T02:37:44.055Z,6.00
2023-04-15T02:40:14.092Z,5.90
2023-04-15T02:42:44.571Z,6.00
2023-04-15T02:45:18.169Z,5.80
2023-04-15T02:47:47.410Z,5.80
2023-04-15T02:50:16.599Z,5.80
2023-04-15T02:52:45.303Z,5.80
2023-04-15T02:55:14.285Z,6.00
2023-04-15T02:57:42.740Z,5.90
2023-04-15T03:00:13.469Z,6.00
2023-04-15T03:02:47.414Z,6.00
2023-04-15T03:05:16.251Z,6.10
2023-04-15T03:07:50.399Z,6.10
2023-04-15T03:10:19.298Z,6.20
2023-04-15T03:12:48.391Z,6.20
2023-04-15T03:15:22.387Z,6.20
2023-04-15T03:17:54.784Z,6.20
2023-04-15T03:20:23.511Z,6.20
2023-04-15T03:22:51.876Z,6.20
2023-04-15T03:25:22.126Z,6.20
2023-04-15T03:27:50.468Z,6.10
2023-04-15T03:30:19.358Z,6.10
2023-04-15T03:32:47.847Z,6.00
2023-04-15T03:35:18.037Z,6.10
2023-04-15T03:37:46.459Z,6.10
2023-04-15T03:40:14.857Z,6.10
2023-04-15T03:42:43.292Z,6.10
2023-04-15T03:45:12.621Z,6.10
2023-04-15T03:47:41.241Z,6.10
2023-04-15T03:50:10.147Z,6.10
2023-04-15T03:52:39.996Z,6.00
2023-04-15T03:55:09.889Z,6.00
2023-04-15T03:57:39.099Z,6.00
2023-04-15T04:00:09.328Z,5.90
2023-04-15T04:02:41.062Z,5.90
2023-04-15T04:05:10.247Z,5.80
2023-04-15T04:07:39.890Z,5.80
2023-04-15T04:10:09.151Z,5.90
2023-04-15T04:12:37.386Z,5.90
2023-04-15T04:15:06.845Z,5.90
2023-04-15T04:17:35.878Z,5.90
2023-04-15T04:20:05.766Z,5.90
2023-04-15T04:22:39.778Z,6.00
2023-04-15T04:25:08.973Z,5.80
2023-04-15T04:27:37.245Z,5.80
2023-04-15T04:30:06.584Z,5.80
2023-04-15T04:32:34.948Z,5.90
2023-04-15T04:35:03.232Z,5.80
2023-04-15T04:37:31.441Z,5.80
2023-04-15T04:40:01.233Z,5.80
2023-04-15T04:42:29.500Z,5.70
2023-04-15T04:44:57.961Z,5.60
2023-04-15T04:47:26.208Z,5.60
2023-04-15T04:49:54.412Z,5.50
2023-04-15T04:52:22.541Z,5.50
2023-04-15T04:54:50.694Z,5.60
2023-04-15T04:57:20.147Z,5.50
2023-04-15T04:59:48.307Z,5.50
2023-04-15T05:02:16.496Z,5.40
2023-04-15T05:04:44.706Z,5.50
2023-04-15T05:07:12.915Z,5.50
2023-04-15T05:09:41.287Z,5.40
2023-04-15T05:12:14.865Z,5.40
2023-04-15T05:14:44.697Z,5.40
2023-04-15T05:17:12.992Z,5.30
2023-04-15T05:19:41.255Z,5.40
2023-04-15T05:22:09.529Z,5.40
2023-04-15T05:24:37.780Z,5.50
2023-04-15T05:27:06.042Z,5.50
2023-04-15T05:29:34.192Z,5.60
2023-04-15T05:32:03.848Z,5.70
2023-04-15T05:34:32.170Z,5.70
2023-04-15T05:37:00.717Z,5.80
2023-04-15T05:39:29.010Z,5.90
2023-04-15T05:41:57.693Z,5.90
2023-04-15T05:44:25.963Z,5.90
2023-04-15T05:46:54.631Z,6.00
2023-04-15T05:49:24.514Z,6.20
2023-04-15T05:51:52.867Z,6.20
2023-04-15T05:54:22.095Z,6.30
2023-04-15T05:56:50.359Z,6.30
2023-04-15T05:59:18.618Z,6.40
2023-04-15T06:01:46.861Z,6.50
2023-04-15T06:04:15.423Z,6.50
2023-04-15T06:06:45.253Z,6.60
2023-04-15T06:09:13.537Z,6.70
2023-04-15T06:11:42.147Z,6.80
2023-04-15T06:14:11.259Z,6.90
2023-04-15T06:16:39.676Z,6.90
2023-04-15T06:19:07.885Z,7.00
2023-04-15T06:21:36.116Z,7.10
2023-04-15T06:24:05.914Z,7.20
2023-04-15T06:26:34.114Z,7.10
2023-04-15T06:29:02.630Z,7.20
2023-04-15T06:31:31.672Z,7.20
2023-04-15T06:33:59.815Z,7.30
2023-04-15T06:36:28.091Z,7.40
2023-04-15T06:38:56.617Z,7.50
2023-04-15T06:41:26.404Z,7.60
2023-04-15T06:43:54.619Z,7.60
2023-04-15T06:46:23.113Z,7.70
2023-04-15T06:48:52.607Z,7.80
2023-04-15T06:51:20.906Z,7.90
2023-04-15T06:53:49.115Z,7.90
2023-04-15T06:56:17.294Z,8.00
2023-04-15T06:58:47.256Z,8.10
2023-04-15T07:01:15.722Z,8.20
2023-04-15T07:03:44.133Z,8.10
2023-04-15T07:06:12.299Z,8.20
2023-04-15T07:08:40.629Z,8.20
2023-04-15T07:11:09.004Z,8.30
2023-04-15T07:13:37.461Z,8.50
2023-04-15T07:16:07.614Z,8.70
2023-04-15T07:18:35.897Z,8.70
2023-04-15T07:21:04.315Z,8.60
2023-04-15T07:23:32.549Z,8.70
2023-04-15T07:26:01.463Z,8.80
2023-04-15T07:28:29.750Z,8.90
2023-04-15T07:30:58.247Z,9.00
2023-04-15T07:33:27.856Z,9.10
2023-04-15T07:35:56.573Z,9.00
2023-04-15T07:38:24.797Z,9.10
2023-04-15T07:40:53.000Z,9.00
2023-04-15T07:43:21.416Z,9.20
2023-04-15T07:45:49.674Z,9.20
2023-04-15T07:48:17.981Z,9.20
2023-04-15T07:50:47.879Z,9.20
2023-04-15T07:53:16.083Z,9.10
2023-04-15T07:55:44.367Z,9.20
2023-04-15T07:58:12.535Z,9.20
2023-04-15T08:00:40.991Z,9.20
2023-04-15T08:03:09.347Z,9.10
2023-04-15T08:05:37.797Z,9.10
2023-04-15T08:08:07.627Z,9.10
2023-04-15T08:10:35.879Z,9.40
2023-04-15T08:13:04.243Z,9.50
2023-04-15T08:15:33.044Z,9.70
2023-04-15T08:18:01.797Z,9.90
2023-04-15T08:20:30.026Z,9.80
2023-04-15T08:22:58.322Z,9.70
2023-04-15T08:25:28.128Z,9.60
2023-04-15T08:27:57.614Z,9.60
2023-04-15T08:30:25.937Z,9.50
2023-04-15T08:32:54.291Z,9.70
2023-04-15T08:35:22.971Z,9.70
2023-04-15T08:37:51.171Z,9.70
2023-04-15T08:40:19.504Z,9.60
2023-04-15T08:42:56.098Z,9.60
2023-04-15T08:45:24.867Z,9.80
2023-04-15T08:47:57.561Z,9.90
2023-04-15T08:50:26.244Z,9.80
2023-04-15T08:52:56.291Z,9.80
2023-04-15T08:55:26.403Z,9.60
2023-04-15T08:57:56.089Z,9.50
2023-04-15T09:00:24.772Z,9.60
2023-04-15T09:02:53.572Z,9.40
2023-04-15T09:05:23.090Z,9.30
2023-04-15T09:07:52.126Z,9.30
2023-04-15T09:10:20.358Z,9.40
2023-04-15T09:12:49.679Z,9.60
2023-04-15T09:15:19.316Z,9.50
2023-04-15T09:17:48.790Z,9.50
2023-04-15T09:20:19.660Z,9.50
2023-04-15T09:22:49.032Z,9.50
2023-04-15T09:25:34.754Z,9.80
2023-04-15T09:28:04.354Z,9.80
2023-04-15T09:30:34.713Z,10.00
2023-04-15T09:33:08.126Z,10.10
2023-04-15T09:35:37.082Z,10.10
2023-04-15T09:38:07.701Z,10.00
2023-04-15T09:40:37.288Z,9.90
2023-04-15T09:43:06.264Z,9.90
2023-04-15T09:45:37.433Z,9.90
2023-04-15T09:48:18.055Z,10.00
2023-04-15T09:50:46.316Z,9.80
2023-04-15T09:53:19.142Z,9.80
2023-04-15T09:55:50.891Z,9.60
2023-04-15T09:58:24.327Z,9.60
2023-04-15T10:00:54.953Z,9.70
2023-04-15T10:03:24.600Z,9.80
2023-04-15T10:05:54.036Z,9.70
2023-04-15T10:08:23.939Z,9.90
2023-04-15T10:10:53.076Z,10.10
2023-04-15T10:13:23.714Z,10.10
2023-04-15T10:15:57.768Z,10.20
2023-04-15T10:18:28.030Z,10.00
2023-04-15T10:20:56.750Z,10.00
2023-04-15T10:23:25.833Z,10.10
2023-04-15T10:25:55.304Z,10.10
2023-04-15T10:28:23.855Z,10.00
2023-04-15T10:30:54.412Z,9.90
2023-04-15T10:33:24.648Z,9.90
2023-04-15T10:35:54.277Z,10.00
2023-04-15T10:38:44.162Z,10.10
2023-04-15T10:41:20.705Z,10.10
2023-04-15T10:43:51.262Z,10.10
2023-04-15T10:46:23.978Z,10.00
2023-04-15T10:48:53.778Z,9.90
2023-04-15T10:51:32.507Z,10.00
2023-04-15T10:54:01.566Z,10.00
2023-04-15T10:56:31.085Z,9.80
2023-04-15T10:59:02.048Z,9.80
2023-04-15T11:01:56.749Z,9.90
2023-04-15T11:04:53.633Z,9.90
2023-04-15T11:07:38.938Z,10.00
2023-04-15T11:10:55.528Z,10.10
2023-04-15T11:13:31.385Z,10.00
2023-04-15T11:16:01.687Z,10.00
2023-04-15T11:18:35.712Z,9.90
2023-04-15T11:21:06.396Z,10.10
2023-04-15T11:23:37.227Z,10.30
2023-04-15T11:26:09.733Z,10.20
2023-04-15T11:28:40.118Z,10.20
2023-04-15T11:31:10.979Z,10.10
2023-04-15T11:33:46.939Z,10.00
2023-04-15T11:36:15.336Z,10.00
2023-04-15T11:38:48.434Z,10.20
2023-04-15T11:41:16.801Z,10.30
2023-04-15T11:43:45.090Z,10.40
2023-04-15T11:46:13.390Z,10.20
2023-04-15T11:48:44.814Z,10.20
2023-04-15T11:51:13.988Z,10.30
2023-04-15T11:53:44.258Z,10.30
2023-04-15T11:56:19.424Z,10.30
2023-04-15T11:58:47.648Z,10.20
2023-04-15T12:01:15.916Z,10.20
2023-04-15T12:03:47.506Z,10.10
2023-04-15T12:06:19.347Z,10.30
2023-04-15T12:09:09.334Z,10.10
2023-04-15T12:11:40.080Z,10.00
2023-04-15T12:14:23.449Z,9.90
2023-04-15T12:16:54.152Z,10.10
2023-04-15T12:19:28.658Z,10.10
2023-04-15T12:22:01.042Z,10.20
2023-04-15T12:24:32.469Z,10.10
2023-04-15T12:27:04.660Z,10.10
2023-04-15T12:29:34.205Z,10.00
2023-04-15T12:32:07.721Z,9.90
2023-04-15T12:34:39.101Z,10.00
2023-04-15T12:37:09.478Z,10.10
2023-04-15T12:39:38.700Z,10.10
2023-04-15T12:42:07.563Z,10.00
2023-04-15T12:44:37.928Z,10.10
2023-04-15T12:47:06.632Z,10.10
2023-04-15T12:49:35.188Z,10.00
2023-04-15T12:52:05.661Z,10.00
2023-04-15T12:54:34.670Z,10.10
2023-04-15T12:57:05.967Z,10.20
2023-04-15T12:59:34.988Z,10.10
2023-04-15T13:02:04.356Z,10.00
2023-04-15T13:04:32.748Z,10.00
2023-04-15T13:07:01.534Z,10.00
2023-04-15T13:09:31.326Z,10.00
2023-04-15T13:11:59.553Z,9.90
2023-04-15T13:14:28.153Z,10.00
2023-04-15T13:16:56.381Z,10.10
2023-04-15T13:19:24.701Z,10.10
2023-04-15T13:21:52.937Z,9.90
2023-04-15T13:24:21.110Z,10.00
2023-04-15T13:26:50.767Z,10.10
2023-04-15T13:29:18.978Z,10.10
2023-04-15T13:31:47.192Z,10.30
2023-04-15T13:34:15.618Z,10.20
2023-04-15T13:36:43.882Z,10.20
2023-04-15T13:39:12.253Z,10.20
2023-04-15T13:41:41.378Z,10.10
2023-04-15T13:44:12.469Z,10.20
2023-04-15T13:46:41.925Z,10.10
2023-04-15T13:49:10.254Z,10.10
2023-04-15T13:51:38.454Z,10.10
2023-04-15T13:54:06.793Z,10.10
2023-04-15T13:56:35.119Z,10.10
2023-04-15T13:59:03.909Z,10.20
2023-04-15T14:01:33.745Z,10.30
2023-04-15T14:04:02.445Z,10.20
2023-04-15T14:06:32.188Z,10.20
2023-04-15T14:09:00.477Z,10.10
2023-04-15T14:11:29.987Z,10.10
2023-04-15T14:13:58.276Z,10.10
2023-04-15T14:16:27.242Z,10.00
2023-04-15T14:18:56.823Z,10.00
2023-04-15T14:21:25.031Z,10.10
2023-04-15T14:23:53.228Z,10.10
2023-04-15T14:26:21.653Z,10.10
2023-04-15T14:28:49.858Z,10.10
2023-04-15T14:31:18.257Z,10.10
2023-04-15T14:33:46.578Z,10.10
2023-04-15T14:36:16.211Z,10.00
2023-04-15T14:38:44.759Z,10.10
2023-04-15T14:41:13.673Z,10.10
2023-04-15T14:43:42.054Z,10.00
2023-04-15T14:46:11.402Z,10.00
2023-04-15T14:48:39.620Z,9.90
2023-04-15T14:51:08.273Z,10.00
2023-04-15T14:53:37.776Z,9.90
2023-04-15T14:56:06.616Z,9.70
2023-04-15T14:58:34.790Z,9.70
2023-04-15T15:01:03.259Z,9.60
2023-04-15T15:03:31.827Z,9.70
2023-04-15T15:06:00.555Z,9.50
2023-04-15T15:08:28.992Z,9.40
2023-04-15T15:10:58.616Z,9.40
2023-04-15T15:13:26.852Z,9.40
2023-04-15T15:15:55.170Z,9.50
2023-04-15T15:18:25.454Z,9.50
2023-04-15T15:20:53.682Z,9.60
2023-04-15T15:23:21.997Z,9.40
2023-04-15T15:25:50.335Z,9.40
2023-04-15T15:28:21.811Z,9.30
2023-04-15T15:30:50.022Z,9.40
2023-04-15T15:33:18.295Z,9.40
2023-04-15T15:35:46.912Z,9.30
2023-04-15T15:38:15.206Z,9.30
2023-04-15T15:40:43.447Z,9.30
2023-04-15T15:43:11.669Z,9.20
2023-04-15T15:45:41.560Z,9.10
2023-04-15T15:48:10.236Z,9.00
2023-04-15T15:50:38.666Z,9.00
2023-04-15T15:53:07.053Z,8.90
2023-04-15T15:55:35.361Z,9.00
2023-04-15T15:58:03.565Z,9.00
2023-04-15T16:00:31.797Z,9.00
2023-04-15T16:03:07.142Z,9.00
2023-04-15T16:05:35.999Z,9.00
2023-04-15T16:08:04.260Z,9.00
2023-04-15T16:10:32.610Z,8.90
2023-04-15T16:13:00.879Z,9.00
2023-04-15T16:15:29.082Z,8.90
2023-04-15T16:17:57.326Z,8.90
2023-04-15T16:20:28.476Z,8.90
2023-04-15T16:22:58.337Z,9.00
2023-04-15T16:25:26.716Z,9.00
2023-04-15T16:28:05.481Z,9.00
2023-04-15T16:30:41.298Z,9.00
2023-04-15T16:33:10.363Z,9.00
2023-04-15T16:35:40.030Z,9.00
2023-04-15T16:38:08.198Z,8.90
2023-04-15T16:40:37.821Z,9.00
2023-04-15T16:43:07.492Z,8.90
2023-04-15T16:45:35.784Z,9.00
2023-04-15T16:48:04.120Z,8.90
2023-04-15T16:50:32.311Z,9.00
2023-04-15T16:53:02.330Z,9.00
2023-04-15T16:55:30.569Z,9.00
2023-04-15T16:58:02.009Z,9.00
2023-04-15T17:00:32.272Z,8.90
2023-04-15T17:03:01.353Z,8.90
2023-04-15T17:05:30.659Z,8.90
2023-04-15T17:07:59.219Z,8.90
2023-04-15T17:10:29.142Z,8.90
2023-04-15T17:12:58.270Z,9.00
2023-04-15T17:15:27.520Z,8.90
2023-04-15T17:17:56.074Z,8.80
2023-04-15T17:20:24.431Z,8.80
2023-04-15T17:22:52.779Z,8.80
2023-04-15T17:25:22.135Z,8.90
2023-04-15T17:27:51.693Z,8.80
2023-04-15T17:30:21.032Z,8.70
2023-04-15T17:32:49.333Z,8.70
2023-04-15T17:35:17.587Z,8.70
2023-04-15T17:37:46.926Z,8.70
2023-04-15T17:40:15.471Z,8.60
2023-04-15T17:42:43.886Z,8.70
2023-04-15T17:45:13.730Z,8.70
2023-04-15T17:47:42.211Z,8.70
2023-04-15T17:50:11.341Z,8.70
2023-04-15T17:52:39.572Z,8.70
2023-04-15T17:55:08.843Z,8.70
2023-04-15T17:57:37.086Z,8.70
2023-04-15T18:00:06.193Z,8.60
2023-04-15T18:02:42.692Z,8.60
2023-04-15T18:05:11.899Z,8.70
2023-04-15T18:07:40.253Z,8.70
2023-04-15T18:10:09.897Z,8.70
2023-04-15T18:12:38.239Z,8.70
2023-04-15T18:15:07.416Z,8.60
2023-04-15T18:17:35.682Z,8.60
2023-04-15T18:20:05.663Z,8.70
2023-04-15T18:22:33.885Z,8.70
2023-04-15T18:25:04.448Z,8.80
2023-04-15T18:27:33.207Z,8.70
2023-04-15T18:30:01.413Z,8.70
2023-04-15T18:32:32.587Z,8.80
2023-04-15T18:35:01.078Z,8.80
2023-04-15T18:37:31.482Z,8.60
2023-04-15T18:40:00.448Z,8.60
2023-04-15T18:42:28.921Z,8.70
2023-04-15T18:44:57.278Z,8.60
2023-04-15T18:47:27.223Z,8.70
2023-04-15T18:49:55.482Z,8.70
2023-04-15T18:52:23.725Z,8.70
2023-04-15T18:54:53.272Z,8.70
2023-04-15T18:57:24.601Z,8.70
2023-04-15T18:59:59.851Z,8.70
2023-04-15T19:02:28.399Z,8.70
2023-04-15T19:04:56.728Z,8.70
2023-04-15T19:07:25.140Z,8.80
2023-04-15T19:09:54.926Z,8.60
2023-04-15T19:12:23.213Z,8.60
2023-04-15T19:14:51.624Z,8.60
2023-04-15T19:17:19.955Z,8.60
2023-04-15T19:19:48.213Z,8.60
2023-04-15T19:22:17.083Z,8.60
2023-04-15T19:24:45.466Z,8.60
2023-04-15T19:27:15.075Z,8.60
2023-04-15T19:29:43.304Z,8.60
2023-04-15T19:32:13.981Z,8.60
2023-04-15T19:34:42.332Z,8.50
2023-04-15T19:37:11.202Z,8.60
2023-04-15T19:39:39.921Z,8.60
2023-04-15T19:42:08.186Z,8.60
2023-04-15T19:44:42.635Z,8.60
2023-04-15T19:47:11.165Z,8.60
2023-04-15T19:49:39.580Z,8.60
2023-04-15T19:52:07.968Z,8.60
2023-04-15T19:54:36.237Z,8.60
2023-04-15T19:57:05.083Z,8.60
2023-04-15T19:59:33.380Z,8.70
2023-04-15T20:02:03.346Z,8.70
2023-04-15T20:04:31.947Z,8.60
2023-04-15T20:07:00.296Z,8.60
2023-04-15T20:09:28.520Z,8.50
2023-04-15T20:12:47.009Z,8.70
2023-04-15T20:14:45.504Z,8.80
2023-04-15T20:17:16.040Z,8.90
2023-04-15T20:19:44.374Z,8.80
2023-04-15T20:22:12.566Z,8.80
2023-04-15T20:24:40.782Z,8.90
2023-04-15T20:27:08.985Z,8.90
2023-04-15T20:29:37.784Z,8.90
2023-04-15T20:32:06.883Z,9.00
2023-04-15T20:34:36.483Z,8.80
2023-04-15T20:37:30.481Z,8.70
2023-04-15T20:39:58.742Z,8.60
2023-04-15T20:42:27.252Z,8.60
2023-04-15T20:44:55.761Z,8.60
2023-04-15T20:47:24.242Z,8.60
2023-04-15T20:49:54.015Z,8.60
2023-04-15T20:52:22.226Z,8.60
2023-04-15T20:54:50.436Z,8.60
2023-04-15T20:57:20.133Z,8.50
2023-04-15T20:59:48.681Z,8.50
2023-04-15T21:02:17.186Z,8.60
2023-04-15T21:04:47.192Z,8.50
2023-04-15T21:07:16.878Z,8.60
2023-04-15T21:09:45.372Z,8.60
2023-04-15T21:12:13.820Z,8.60
2023-04-15T21:14:42.097Z,8.60
2023-04-15T21:17:11.354Z,8.60
2023-04-15T21:19:40.363Z,8.60
2023-04-15T21:22:08.647Z,8.60
2023-04-15T21:24:38.217Z,8.60
2023-04-15T21:27:06.525Z,8.60
2023-04-15T21:29:34.788Z,8.60
2023-04-15T21:32:03.179Z,8.50
2023-04-15T21:34:31.507Z,8.60
2023-04-15T21:36:59.815Z,8.60
2023-04-15T21:39:28.251Z,8.50
2023-04-15T21:41:59.459Z,8.50
2023-04-15T21:44:27.866Z,8.40
2023-04-15T21:46:56.563Z,8.50
2023-04-15T21:49:25.566Z,8.50
2023-04-15T21:51:53.932Z,8.50
2023-04-15T21:54:22.079Z,8.60
2023-04-15T21:56:50.927Z,8.50
2023-04-15T21:59:20.534Z,8.60
2023-04-15T22:01:48.897Z,8.60
2023-04-15T22:04:17.459Z,8.50
2023-04-15T22:06:45.676Z,8.50
2023-04-15T22:09:14.522Z,8.60
2023-04-15T22:11:42.821Z,8.60
2023-04-15T22:14:11.281Z,8.50
2023-04-15T22:16:41.135Z,8.50
2023-04-15T22:19:09.741Z,8.60
2023-04-15T22:21:37.955Z,8.60
2023-04-15T22:24:33.738Z,8.60
2023-04-15T22:26:55.800Z,8.50
2023-04-15T22:29:24.094Z,8.60
2023-04-15T22:31:54.684Z,8.60
2023-04-15T22:34:22.991Z,8.60
2023-04-15T22:36:51.986Z,8.70
2023-04-15T22:39:20.588Z,8.70
2023-04-15T22:41:48.982Z,8.70
2023-04-15T22:44:17.238Z,8.70
2023-04-15T22:46:45.500Z,8.60
2023-04-15T22:49:15.116Z,8.60
2023-04-15T22:51:43.469Z,8.60
2023-04-15T22:54:11.706Z,8.60
2023-04-15T22:56:39.951Z,8.60
2023-04-15T22:59:08.512Z,8.60
2023-04-15T23:01:38.235Z,8.60
2023-04-15T23:04:08.269Z,8.60
2023-04-15T23:06:52.955Z,8.50
2023-04-15T23:09:21.475Z,8.60
2023-04-15T23:11:49.701Z,8.60
2023-04-15T23:14:17.916Z,8.60
2023-04-15T23:16:46.434Z,8.60
2023-04-15T23:19:14.769Z,8.60
2023-04-15T23:21:43.378Z,8.60
2023-04-15T23:24:13.462Z,8.60
2023-04-15T23:26:42.177Z,8.50
2023-04-15T23:29:10.657Z,8.50
2023-04-15T23:31:39.075Z,8.70
2023-04-15T23:34:07.431Z,8.70
2023-04-15T23:36:35.629Z,8.50
2023-04-15T23:39:03.844Z,8.60
2023-04-15T23:41:33.421Z,8.60
2023-04-15T23:44:01.655Z,8.70
2023-04-15T23:46:29.927Z,8.60
2023-04-15T23:48:58.232Z,8.60
2023-04-15T23:51:26.486Z,8.60
2023-04-15T23:53:54.867Z,8.70
2023-04-15T23:56:23.225Z,8.60
2023-04-15T23:58:52.846Z,8.50
